Главная страница
METAR-TAF:

METAR-TAF

Аэропорты :

Олесунн, Норвегия

широта: 62-34N, долгота: 006-07E, высота над уровнем моря: 2 м

Текущие метеонаблюдения

Эта сводка был подготовлена 18 минут назад, в 16:20 UTC
Ветер 12 Узел от восточно-северо-восточный
Температура 10°C
Влажность 82%
Давление 1006 hPa
Видимость 10 км и более
небольшая облачность на высоте 800 фута

METAR: ENAL 141620Z 06012KT 9999 FEW008 10/07 Q1006

Время: 18:38 (16:38 UTC)

Прогноз

Эта сводка был подготовлена 2 часа и 38 минут назад, в 14:00 UTC
Прогноз действительный с 14-го 15 UTC до 14-го 21 UTC
Ветер 12 Узел от северо-восточный
Видимость 10 км и более
небольшая облачность на высоте 1000 фута
Отдельные облака на высоте 2000 фута
Вероятность 30%
С 14-го 19 UTC до 14-го 21 UTC
Рассеянная облачность на высоте 800 фута

TAF: ENAL 141400Z 1415/1421 05012KT 9999 FEW010 SCT020 PROB30 1419/1421 BKN008

Метеонаблюдения и прогнозы для более 4000 аэропортов (сводки METAR и TAF).

Имеющиеся станции представлены на карте желтыми и красными точками.

Чтобы увидеть название станции, наведите на нее мышь.

Затем щелкните, чтобы увидеть метеонаблюдения и метеопрогнозы.

Управление картой: чтобы увеличить масштаб, щелкните зеленые кнопки с черным крестиком; чтобы уменьшить масштаб, щелкните зеленую кнопку с тире; для просмотра соседних карт щелкайте зеленые стрелки.


METAR-TAF: